This is the latest recevied weather packets stored in our database for station/object SQ2LXT-10. If no packets are shown the sender has not sent any weather packets the latest 10 day(s).
| Time | Temp. | Humidity | Pressure | Rain* | Wind** | Luminosity | Snow |
|---|---|---|---|---|---|---|---|
| 1777366796 | 8.89° C | 44% | 1021.8 hPa | - | - | - | - |
| 1777365896 | 9.44° C | 44% | 1021.8 hPa | - | - | - | - |
| 1777364996 | 8.33° C | 46% | 1021.8 hPa | - | - | - | - |
| 1777364096 | 8.33° C | 48% | 1021.9 hPa | - | - | - | - |
| 1777363196 | 7.78° C | 57% | 1022 hPa | - | - | - | - |
| 1777362296 | 7.22° C | 66% | 1022.1 hPa | - | - | - | - |
| 1777361396 | 7.22° C | 73% | 1022.1 hPa | - | - | - | - |
| 1777360496 | 6.11° C | 84% | 1022.1 hPa | - | - | - | - |
| 1777359596 | 6.11° C | 98% | 1022 hPa | - | - | - | - |
| 1777358696 | 6.11° C | 100% | 1022.2 hPa | - | - | - | - |
| 1777357796 | 5.56° C | 100% | 1022.2 hPa | - | - | - | - |
| 1777356892 | 5.56° C | 100% | 1022.1 hPa | - | - | - | - |
| 1777355992 | 5° C | 100% | 1022 hPa | - | - | - | - |
| 1777355092 | 4.44° C | 100% | 1021.8 hPa | - | - | - | - |
| 1777354192 | 3.33° C | 100% | 1021.8 hPa | - | - | - | - |
| 1777353292 | 4.44° C | 89% | 1021.6 hPa | - | - | - | - |
| 1777352392 | 13.33° C | 48% | 1021.5 hPa | - | - | - | - |
| 1777351492 | 12.22° C | 49% | 1021.4 hPa | - | - | - | - |
| 1777350591 | 11.67° C | 52% | 1021.3 hPa | - | - | - | - |
| 1777349692 | 8.33° C | 86% | 1021.2 hPa | - | - | - | - |
| 1777348791 | 0° C | 100% | 1021.1 hPa | - | - | - | - |
| 1777347891 | -3.89° C | 100% | 1021.1 hPa | - | - | - | - |
| 1777346991 | -4.44° C | 100% | 1020.9 hPa | - | - | - | - |
| 1777346091 | -4.44° C | 100% | 1020.9 hPa | - | - | - | - |
| 1777345191 | -4.44° C | 100% | 1020.8 hPa | - | - | - | - |
* Rain since midnight (hover to see other rain measurements)
** Current wind speed in m/s (hover to see current wind gust speed)